sensor_id;sensor_type;location;lat;lon;timestamp;temperature;humidity
22337;DHT22;14992;50.844;4.418;2023-02-01T00:02:22;8.90;99.90
22337;DHT22;14992;50.844;4.418;2023-02-01T00:05:19;8.70;99.90
22337;DHT22;14992;50.844;4.418;2023-02-01T00:08:04;8.70;99.90
22337;DHT22;14992;50.844;4.418;2023-02-01T00:11:00;8.60;99.90
22337;DHT22;14992;50.844;4.418;2023-02-01T00:13:42;8.60;99.90
22337;DHT22;14992;50.844;4.418;2023-02-01T00:16:34;8.60;99.90
22337;DHT22;14992;50.844;4.418;2023-02-01T00:19:17;8.60;99.90
22337;DHT22;14992;50.844;4.418;2023-02-01T00:22:06;8.60;99.90
22337;DHT22;14992;50.844;4.418;2023-02-01T00:24:51;8.50;99.90
22337;DHT22;14992;50.844;4.418;2023-02-01T00:27:41;8.50;99.90
22337;DHT22;14992;50.844;4.418;2023-02-01T00:30:24;8.50;99.90
22337;DHT22;14992;50.844;4.418;2023-02-01T00:33:21;8.50;99.90
22337;DHT22;14992;50.844;4.418;2023-02-01T00:35:57;8.50;99.90
22337;DHT22;14992;50.844;4.418;2023-02-01T00:38:53;8.60;99.90
22337;DHT22;14992;50.844;4.418;2023-02-01T00:41:31;8.70;99.90
22337;DHT22;14992;50.844;4.418;2023-02-01T00:44:27;8.60;99.90
22337;DHT22;14992;50.844;4.418;2023-02-01T00:47:10;8.50;99.90
22337;DHT22;14992;50.844;4.418;2023-02-01T00:49:59;8.50;99.90
22337;DHT22;14992;50.844;4.418;2023-02-01T00:52:34;8.50;99.90
22337;DHT22;14992;50.844;4.418;2023-02-01T00:55:33;8.60;99.90
22337;DHT22;14992;50.844;4.418;2023-02-01T00:58:17;8.60;99.90
22337;DHT22;14992;50.844;4.418;2023-02-01T01:01:09;8.50;99.90
22337;DHT22;14992;50.844;4.418;2023-02-01T01:03:56;8.50;99.90
22337;DHT22;14992;50.844;4.418;2023-02-01T01:06:45;8.50;99.90
22337;DHT22;14992;50.844;4.418;2023-02-01T01:09:27;8.40;99.90
22337;DHT22;14992;50.844;4.418;2023-02-01T01:12:19;8.50;99.90
22337;DHT22;14992;50.844;4.418;2023-02-01T01:15:04;8.40;99.90
22337;DHT22;14992;50.844;4.418;2023-02-01T01:17:54;8.40;99.90
22337;DHT22;14992;50.844;4.418;2023-02-01T01:20:37;8.50;99.90
22337;DHT22;14992;50.844;4.418;2023-02-01T01:23:35;8.50;99.90
22337;DHT22;14992;50.844;4.418;2023-02-01T01:26:13;8.50;99.90
22337;DHT22;14992;50.844;4.418;2023-02-01T01:29:10;8.60;99.90
22337;DHT22;14992;50.844;4.418;2023-02-01T01:31:47;8.60;99.90
22337;DHT22;14992;50.844;4.418;2023-02-01T01:34:42;8.60;99.90
22337;DHT22;14992;50.844;4.418;2023-02-01T01:37:18;8.60;99.90
22337;DHT22;14992;50.844;4.418;2023-02-01T01:40:14;8.60;99.90
22337;DHT22;14992;50.844;4.418;2023-02-01T01:42:49;8.60;99.90
22337;DHT22;14992;50.844;4.418;2023-02-01T01:45:49;8.60;99.90
22337;DHT22;14992;50.844;4.418;2023-02-01T01:48:47;8.60;99.90
22337;DHT22;14992;50.844;4.418;2023-02-01T01:51:24;8.70;99.90
22337;DHT22;14992;50.844;4.418;2023-02-01T01:54:25;8.60;99.90
22337;DHT22;14992;50.844;4.418;2023-02-01T01:57:10;8.70;99.90
22337;DHT22;14992;50.844;4.418;2023-02-01T02:00:13;8.70;99.90
22337;DHT22;14992;50.844;4.418;2023-02-01T02:02:54;8.70;99.90
22337;DHT22;14992;50.844;4.418;2023-02-01T02:05:57;8.70;99.90
22337;DHT22;14992;50.844;4.418;2023-02-01T02:08:34;8.70;99.90
22337;DHT22;14992;50.844;4.418;2023-02-01T02:11:30;8.70;99.90
22337;DHT22;14992;50.844;4.418;2023-02-01T02:14:26;8.70;99.90
22337;DHT22;14992;50.844;4.418;2023-02-01T02:17:15;8.50;99.90
22337;DHT22;14992;50.844;4.418;2023-02-01T02:20:45;8.40;99.90
22337;DHT22;14992;50.844;4.418;2023-02-01T02:27:16;8.30;99.90
22337;DHT22;14992;50.844;4.418;2023-02-01T02:30:36;8.30;99.90
22337;DHT22;14992;50.844;4.418;2023-02-01T02:34:06;8.30;99.90
22337;DHT22;14992;50.844;4.418;2023-02-01T02:37:10;8.50;99.90
22337;DHT22;14992;50.844;4.418;2023-02-01T02:39:55;8.60;99.90
22337;DHT22;14992;50.844;4.418;2023-02-01T02:43:04;8.60;99.90
22337;DHT22;14992;50.844;4.418;2023-02-01T02:46:22;8.60;99.90
22337;DHT22;14992;50.844;4.418;2023-02-01T02:49:34;8.50;99.90
22337;DHT22;14992;50.844;4.418;2023-02-01T02:53:04;8.50;99.90
22337;DHT22;14992;50.844;4.418;2023-02-01T02:56:09;8.50;99.90
22337;DHT22;14992;50.844;4.418;2023-02-01T02:59:26;8.60;99.90
22337;DHT22;14992;50.844;4.418;2023-02-01T03:02:21;8.50;99.90
22337;DHT22;14992;50.844;4.418;2023-02-01T03:05:42;8.40;99.90
22337;DHT22;14992;50.844;4.418;2023-02-01T03:08:21;8.40;99.90
22337;DHT22;14992;50.844;4.418;2023-02-01T03:11:17;8.30;99.90
22337;DHT22;14992;50.844;4.418;2023-02-01T03:13:55;8.20;99.90
22337;DHT22;14992;50.844;4.418;2023-02-01T03:16:59;8.20;99.90
22337;DHT22;14992;50.844;4.418;2023-02-01T03:19:39;8.10;99.90
22337;DHT22;14992;50.844;4.418;2023-02-01T03:22:41;8.00;99.90
22337;DHT22;14992;50.844;4.418;2023-02-01T03:25:43;8.00;99.90
22337;DHT22;14992;50.844;4.418;2023-02-01T03:28:23;8.00;99.90
22337;DHT22;14992;50.844;4.418;2023-02-01T03:31:21;8.00;99.90
22337;DHT22;14992;50.844;4.418;2023-02-01T03:33:57;7.90;99.90
22337;DHT22;14992;50.844;4.418;2023-02-01T03:36:59;7.80;99.90
22337;DHT22;14992;50.844;4.418;2023-02-01T03:39:43;7.80;99.90
22337;DHT22;14992;50.844;4.418;2023-02-01T03:42:44;7.80;99.90
22337;DHT22;14992;50.844;4.418;2023-02-01T03:45:48;7.90;99.90
22337;DHT22;14992;50.844;4.418;2023-02-01T03:48:32;7.90;99.90
22337;DHT22;14992;50.844;4.418;2023-02-01T03:51:28;7.80;99.90
22337;DHT22;14992;50.844;4.418;2023-02-01T03:54:08;7.70;99.90
22337;DHT22;14992;50.844;4.418;2023-02-01T03:57:11;7.70;99.90
22337;DHT22;14992;50.844;4.418;2023-02-01T03:59:47;7.60;99.90
22337;DHT22;14992;50.844;4.418;2023-02-01T04:02:52;7.60;99.90
22337;DHT22;14992;50.844;4.418;2023-02-01T04:05:27;7.60;99.90
22337;DHT22;14992;50.844;4.418;2023-02-01T04:08:28;7.60;99.90
22337;DHT22;14992;50.844;4.418;2023-02-01T04:11:05;7.60;99.90
22337;DHT22;14992;50.844;4.418;2023-02-01T04:14:02;7.60;99.90
22337;DHT22;14992;50.844;4.418;2023-02-01T04:16:39;7.60;99.90
22337;DHT22;14992;50.844;4.418;2023-02-01T04:19:37;7.50;99.90
22337;DHT22;14992;50.844;4.418;2023-02-01T04:22:19;7.50;99.90
22337;DHT22;14992;50.844;4.418;2023-02-01T04:25:10;7.40;99.90
22337;DHT22;14992;50.844;4.418;2023-02-01T04:27:54;7.30;99.90
22337;DHT22;14992;50.844;4.418;2023-02-01T04:30:45;7.30;99.90
22337;DHT22;14992;50.844;4.418;2023-02-01T04:33:27;7.20;99.90
22337;DHT22;14992;50.844;4.418;2023-02-01T04:36:17;7.20;99.90
22337;DHT22;14992;50.844;4.418;2023-02-01T04:39:00;7.10;99.90
22337;DHT22;14992;50.844;4.418;2023-02-01T04:41:50;7.10;99.90
22337;DHT22;14992;50.844;4.418;2023-02-01T04:44:41;7.10;99.90
22337;DHT22;14992;50.844;4.418;2023-02-01T04:47:39;7.10;99.90
22337;DHT22;14992;50.844;4.418;2023-02-01T04:50:15;7.00;99.90
22337;DHT22;14992;50.844;4.418;2023-02-01T04:53:11;7.00;99.90
22337;DHT22;14992;50.844;4.418;2023-02-01T04:55:48;7.00;99.90
22337;DHT22;14992;50.844;4.418;2023-02-01T04:58:44;6.90;99.90
22337;DHT22;14992;50.844;4.418;2023-02-01T05:01:19;6.80;99.90
22337;DHT22;14992;50.844;4.418;2023-02-01T05:04:18;6.90;99.90
22337;DHT22;14992;50.844;4.418;2023-02-01T05:06:54;6.80;99.90
22337;DHT22;14992;50.844;4.418;2023-02-01T05:09:52;6.70;99.90
22337;DHT22;14992;50.844;4.418;2023-02-01T05:12:35;6.60;99.90
22337;DHT22;14992;50.844;4.418;2023-02-01T05:15:42;6.60;99.90
22337;DHT22;14992;50.844;4.418;2023-02-01T05:18:23;6.60;99.90
22337;DHT22;14992;50.844;4.418;2023-02-01T05:21:14;6.60;99.90
22337;DHT22;14992;50.844;4.418;2023-02-01T05:23:58;6.60;99.90
22337;DHT22;14992;50.844;4.418;2023-02-01T05:26:54;6.60;99.90
22337;DHT22;14992;50.844;4.418;2023-02-01T05:29:37;6.60;99.90
22337;DHT22;14992;50.844;4.418;2023-02-01T05:32:27;6.80;99.90
22337;DHT22;14992;50.844;4.418;2023-02-01T05:35:10;6.90;99.90
22337;DHT22;14992;50.844;4.418;2023-02-01T05:38:09;6.90;99.90
22337;DHT22;14992;50.844;4.418;2023-02-01T05:40:44;7.00;99.90
22337;DHT22;14992;50.844;4.418;2023-02-01T05:43:42;6.90;99.90
22337;DHT22;14992;50.844;4.418;2023-02-01T05:46:38;6.80;99.90
22337;DHT22;14992;50.844;4.418;2023-02-01T05:49:22;6.80;99.90
22337;DHT22;14992;50.844;4.418;2023-02-01T05:52:12;6.70;99.90
22337;DHT22;14992;50.844;4.418;2023-02-01T05:54:57;6.70;99.90
22337;DHT22;14992;50.844;4.418;2023-02-01T05:57:53;6.60;99.90
22337;DHT22;14992;50.844;4.418;2023-02-01T06:00:28;6.50;99.90
22337;DHT22;14992;50.844;4.418;2023-02-01T06:03:25;6.50;99.90
22337;DHT22;14992;50.844;4.418;2023-02-01T06:06:01;6.30;99.90
22337;DHT22;14992;50.844;4.418;2023-02-01T06:08:57;6.30;99.90
22337;DHT22;14992;50.844;4.418;2023-02-01T06:11:34;6.30;99.90
22337;DHT22;14992;50.844;4.418;2023-02-01T06:14:29;6.30;99.90
22337;DHT22;14992;50.844;4.418;2023-02-01T06:17:06;6.30;99.90
22337;DHT22;14992;50.844;4.418;2023-02-01T06:20:05;6.30;99.90
22337;DHT22;14992;50.844;4.418;2023-02-01T06:22:42;6.30;99.90
22337;DHT22;14992;50.844;4.418;2023-02-01T06:25:40;6.30;99.90
22337;DHT22;14992;50.844;4.418;2023-02-01T06:28:24;6.40;99.90
22337;DHT22;14992;50.844;4.418;2023-02-01T06:31:14;6.40;99.90
22337;DHT22;14992;50.844;4.418;2023-02-01T06:33:56;6.30;99.90
22337;DHT22;14992;50.844;4.418;2023-02-01T06:36:47;6.30;99.90
22337;DHT22;14992;50.844;4.418;2023-02-01T06:39:29;6.30;99.90
22337;DHT22;14992;50.844;4.418;2023-02-01T06:42:20;6.30;99.90
22337;DHT22;14992;50.844;4.418;2023-02-01T06:45:10;6.40;99.90
22337;DHT22;14992;50.844;4.418;2023-02-01T06:47:53;6.40;99.90
22337;DHT22;14992;50.844;4.418;2023-02-01T06:50:43;6.40;99.90
22337;DHT22;14992;50.844;4.418;2023-02-01T06:53:26;6.30;99.90
22337;DHT22;14992;50.844;4.418;2023-02-01T06:56:15;6.20;99.90
22337;DHT22;14992;50.844;4.418;2023-02-01T06:58:58;6.20;99.90
22337;DHT22;14992;50.844;4.418;2023-02-01T07:01:49;6.20;99.90
22337;DHT22;14992;50.844;4.418;2023-02-01T07:04:32;6.20;99.90
22337;DHT22;14992;50.844;4.418;2023-02-01T07:07:20;6.20;99.90
22337;DHT22;14992;50.844;4.418;2023-02-01T07:10:03;6.20;99.90
22337;DHT22;14992;50.844;4.418;2023-02-01T07:12:52;6.20;99.90
22337;DHT22;14992;50.844;4.418;2023-02-01T07:15:39;6.20;99.90
22337;DHT22;14992;50.844;4.418;2023-02-01T07:18:37;6.20;99.90
22337;DHT22;14992;50.844;4.418;2023-02-01T07:21:13;6.20;99.90
22337;DHT22;14992;50.844;4.418;2023-02-01T07:24:10;6.20;99.90
22337;DHT22;14992;50.844;4.418;2023-02-01T07:26:45;6.10;99.90
22337;DHT22;14992;50.844;4.418;2023-02-01T07:29:42;6.20;99.90
22337;DHT22;14992;50.844;4.418;2023-02-01T07:32:18;6.10;99.90
22337;DHT22;14992;50.844;4.418;2023-02-01T07:35:16;6.20;99.90
22337;DHT22;14992;50.844;4.418;2023-02-01T07:37:53;6.20;99.90
22337;DHT22;14992;50.844;4.418;2023-02-01T07:40:48;6.10;99.90
22337;DHT22;14992;50.844;4.418;2023-02-01T07:43:25;6.20;99.90
22337;DHT22;14992;50.844;4.418;2023-02-01T07:46:20;6.10;99.90
22337;DHT22;14992;50.844;4.418;2023-02-01T07:49:04;6.20;99.90
22337;DHT22;14992;50.844;4.418;2023-02-01T07:51:55;6.10;99.90
22337;DHT22;14992;50.844;4.418;2023-02-01T07:54:37;6.30;99.90
22337;DHT22;14992;50.844;4.418;2023-02-01T07:57:27;6.30;99.90
22337;DHT22;14992;50.844;4.418;2023-02-01T08:00:09;6.40;99.90
22337;DHT22;14992;50.844;4.418;2023-02-01T08:03:16;6.50;99.90
22337;DHT22;14992;50.844;4.418;2023-02-01T08:05:58;6.50;99.90
22337;DHT22;14992;50.844;4.418;2023-02-01T08:08:52;6.50;99.90
22337;DHT22;14992;50.844;4.418;2023-02-01T08:11:35;6.40;99.90
22337;DHT22;14992;50.844;4.418;2023-02-01T08:14:33;6.40;99.90
22337;DHT22;14992;50.844;4.418;2023-02-01T08:17:12;6.50;99.90
22337;DHT22;14992;50.844;4.418;2023-02-01T08:20:08;6.60;99.90
22337;DHT22;14992;50.844;4.418;2023-02-01T08:22:47;6.70;99.90
22337;DHT22;14992;50.844;4.418;2023-02-01T08:25:46;6.70;99.90
22337;DHT22;14992;50.844;4.418;2023-02-01T08:28:24;6.70;99.90
22337;DHT22;14992;50.844;4.418;2023-02-01T08:31:20;6.60;99.90
22337;DHT22;14992;50.844;4.418;2023-02-01T08:33:59;6.60;99.90
22337;DHT22;14992;50.844;4.418;2023-02-01T08:36:57;6.60;99.90
22337;DHT22;14992;50.844;4.418;2023-02-01T08:39:43;6.70;99.90
22337;DHT22;14992;50.844;4.418;2023-02-01T08:42:34;6.80;99.90
22337;DHT22;14992;50.844;4.418;2023-02-01T08:45:41;6.90;99.90
22337;DHT22;14992;50.844;4.418;2023-02-01T08:48:22;6.90;99.90
22337;DHT22;14992;50.844;4.418;2023-02-01T08:51:13;6.90;99.90
22337;DHT22;14992;50.844;4.418;2023-02-01T08:53:49;6.90;99.90
22337;DHT22;14992;50.844;4.418;2023-02-01T08:56:45;6.90;99.90
22337;DHT22;14992;50.844;4.418;2023-02-01T08:59:22;6.70;99.90
22337;DHT22;14992;50.844;4.418;2023-02-01T09:02:19;6.70;99.90
22337;DHT22;14992;50.844;4.418;2023-02-01T09:05:03;6.80;99.90
22337;DHT22;14992;50.844;4.418;2023-02-01T09:07:53;6.90;99.90
22337;DHT22;14992;50.844;4.418;2023-02-01T09:10:37;6.90;99.90
22337;DHT22;14992;50.844;4.418;2023-02-01T09:13:26;6.90;99.90
22337;DHT22;14992;50.844;4.418;2023-02-01T09:16:09;7.00;99.90
22337;DHT22;14992;50.844;4.418;2023-02-01T09:18:59;7.00;99.90
22337;DHT22;14992;50.844;4.418;2023-02-01T09:21:58;7.10;99.90
22337;DHT22;14992;50.844;4.418;2023-02-01T09:24:48;7.20;99.90
22337;DHT22;14992;50.844;4.418;2023-02-01T09:27:31;7.20;99.90
22337;DHT22;14992;50.844;4.418;2023-02-01T09:30:27;7.30;99.90
22337;DHT22;14992;50.844;4.418;2023-02-01T09:33:05;7.20;99.90
22337;DHT22;14992;50.844;4.418;2023-02-01T09:36:03;7.30;99.90
22337;DHT22;14992;50.844;4.418;2023-02-01T09:38:38;7.30;99.90
22337;DHT22;14992;50.844;4.418;2023-02-01T09:41:52;7.30;99.90
22337;DHT22;14992;50.844;4.418;2023-02-01T09:44:59;7.40;99.90
22337;DHT22;14992;50.844;4.418;2023-02-01T09:48:00;7.50;99.90
22337;DHT22;14992;50.844;4.418;2023-02-01T09:50:45;7.60;99.90
22337;DHT22;14992;50.844;4.418;2023-02-01T09:53:58;7.50;99.90
22337;DHT22;14992;50.844;4.418;2023-02-01T09:56:46;7.60;99.90
22337;DHT22;14992;50.844;4.418;2023-02-01T09:59:40;7.70;99.90
22337;DHT22;14992;50.844;4.418;2023-02-01T10:02:26;7.70;99.90
22337;DHT22;14992;50.844;4.418;2023-02-01T10:05:18;7.60;99.90
22337;DHT22;14992;50.844;4.418;2023-02-01T10:08:09;7.70;99.90
22337;DHT22;14992;50.844;4.418;2023-02-01T10:11:07;7.80;99.90
22337;DHT22;14992;50.844;4.418;2023-02-01T10:14:05;7.90;99.90
22337;DHT22;14992;50.844;4.418;2023-02-01T10:17:06;7.80;99.90
22337;DHT22;14992;50.844;4.418;2023-02-01T10:19:56;8.00;99.90
22337;DHT22;14992;50.844;4.418;2023-02-01T10:22:54;8.10;99.90
22337;DHT22;14992;50.844;4.418;2023-02-01T10:26:08;8.20;99.90
22337;DHT22;14992;50.844;4.418;2023-02-01T10:29:13;8.20;99.90
22337;DHT22;14992;50.844;4.418;2023-02-01T10:31:49;8.40;99.90
22337;DHT22;14992;50.844;4.418;2023-02-01T10:34:50;8.50;99.90
22337;DHT22;14992;50.844;4.418;2023-02-01T10:37:29;8.60;99.90
22337;DHT22;14992;50.844;4.418;2023-02-01T10:40:27;8.60;99.90
22337;DHT22;14992;50.844;4.418;2023-02-01T10:43:04;8.70;99.90
22337;DHT22;14992;50.844;4.418;2023-02-01T10:45:59;8.80;99.90
22337;DHT22;14992;50.844;4.418;2023-02-01T10:48:36;8.80;99.90
22337;DHT22;14992;50.844;4.418;2023-02-01T10:51:42;8.70;99.90
22337;DHT22;14992;50.844;4.418;2023-02-01T10:54:19;8.80;99.90
22337;DHT22;14992;50.844;4.418;2023-02-01T10:57:22;8.90;99.90
22337;DHT22;14992;50.844;4.418;2023-02-01T11:00:19;9.00;99.90
22337;DHT22;14992;50.844;4.418;2023-02-01T11:03:34;9.10;99.90
22337;DHT22;14992;50.844;4.418;2023-02-01T11:06:22;9.30;99.90
22337;DHT22;14992;50.844;4.418;2023-02-01T11:09:18;9.40;99.90
22337;DHT22;14992;50.844;4.418;2023-02-01T11:12:02;9.50;99.90
22337;DHT22;14992;50.844;4.418;2023-02-01T11:14:50;9.60;99.90
22337;DHT22;14992;50.844;4.418;2023-02-01T11:17:40;9.50;99.90
22337;DHT22;14992;50.844;4.418;2023-02-01T11:20:39;9.60;99.90
22337;DHT22;14992;50.844;4.418;2023-02-01T11:23:24;9.80;99.90
22337;DHT22;14992;50.844;4.418;2023-02-01T11:26:22;10.00;99.90
22337;DHT22;14992;50.844;4.418;2023-02-01T11:29:04;10.00;99.90
22337;DHT22;14992;50.844;4.418;2023-02-01T11:32:02;9.90;99.90
22337;DHT22;14992;50.844;4.418;2023-02-01T11:34:45;10.10;99.90
22337;DHT22;14992;50.844;4.418;2023-02-01T11:37:50;10.00;99.90
22337;DHT22;14992;50.844;4.418;2023-02-01T11:40:29;10.00;99.90
22337;DHT22;14992;50.844;4.418;2023-02-01T11:43:31;10.10;99.90
22337;DHT22;14992;50.844;4.418;2023-02-01T11:46:29;10.10;99.90
22337;DHT22;14992;50.844;4.418;2023-02-01T11:49:21;9.90;99.90
22337;DHT22;14992;50.844;4.418;2023-02-01T11:52:12;9.90;99.90
22337;DHT22;14992;50.844;4.418;2023-02-01T11:58:50;9.70;99.90
22337;DHT22;14992;50.844;4.418;2023-02-01T12:02:17;9.80;99.90
22337;DHT22;14992;50.844;4.418;2023-02-01T12:05:23;10.20;99.90
22337;DHT22;14992;50.844;4.418;2023-02-01T12:08:49;10.30;99.90
22337;DHT22;14992;50.844;4.418;2023-02-01T12:11:46;10.60;99.90
22337;DHT22;14992;50.844;4.418;2023-02-01T12:15:09;10.70;99.90
22337;DHT22;14992;50.844;4.418;2023-02-01T12:18:03;10.70;99.90
22337;DHT22;14992;50.844;4.418;2023-02-01T12:21:06;10.60;99.90
22337;DHT22;14992;50.844;4.418;2023-02-01T12:24:04;10.70;99.90
22337;DHT22;14992;50.844;4.418;2023-02-01T12:27:15;10.90;99.90
22337;DHT22;14992;50.844;4.418;2023-02-01T12:30:08;11.00;99.90
22337;DHT22;14992;50.844;4.418;2023-02-01T12:33:17;11.20;99.90
22337;DHT22;14992;50.844;4.418;2023-02-01T12:36:07;11.20;99.90
22337;DHT22;14992;50.844;4.418;2023-02-01T12:39:16;11.30;99.90
22337;DHT22;14992;50.844;4.418;2023-02-01T12:42:02;11.20;99.90
22337;DHT22;14992;50.844;4.418;2023-02-01T12:45:02;11.30;99.90
22337;DHT22;14992;50.844;4.418;2023-02-01T12:48:25;11.40;99.90
22337;DHT22;14992;50.844;4.418;2023-02-01T12:51:06;11.30;99.90
22337;DHT22;14992;50.844;4.418;2023-02-01T12:54:09;11.30;99.90
22337;DHT22;14992;50.844;4.418;2023-02-01T12:56:49;11.30;99.90
22337;DHT22;14992;50.844;4.418;2023-02-01T12:59:53;11.20;99.90
22337;DHT22;14992;50.844;4.418;2023-02-01T13:02:35;11.40;99.90
22337;DHT22;14992;50.844;4.418;2023-02-01T13:05:43;11.50;99.90
22337;DHT22;14992;50.844;4.418;2023-02-01T13:08:42;11.60;99.90
22337;DHT22;14992;50.844;4.418;2023-02-01T13:11:38;11.70;99.90
22337;DHT22;14992;50.844;4.418;2023-02-01T13:14:28;11.70;99.90
22337;DHT22;14992;50.844;4.418;2023-02-01T13:17:23;11.70;99.90
22337;DHT22;14992;50.844;4.418;2023-02-01T13:20:16;11.70;99.90
22337;DHT22;14992;50.844;4.418;2023-02-01T13:23:11;11.90;99.90
22337;DHT22;14992;50.844;4.418;2023-02-01T13:25:56;11.80;99.90
22337;DHT22;14992;50.844;4.418;2023-02-01T13:28:50;11.90;99.90
22337;DHT22;14992;50.844;4.418;2023-02-01T13:32:05;11.90;99.90
22337;DHT22;14992;50.844;4.418;2023-02-01T13:35:44;11.90;99.90
22337;DHT22;14992;50.844;4.418;2023-02-01T13:38:42;11.90;99.90
22337;DHT22;14992;50.844;4.418;2023-02-01T13:41:52;12.00;99.90
22337;DHT22;14992;50.844;4.418;2023-02-01T13:44:33;12.10;99.90
22337;DHT22;14992;50.844;4.418;2023-02-01T13:47:35;12.00;99.90
22337;DHT22;14992;50.844;4.418;2023-02-01T13:50:20;12.00;99.90
22337;DHT22;14992;50.844;4.418;2023-02-01T13:53:20;11.80;99.90
22337;DHT22;14992;50.844;4.418;2023-02-01T13:56:09;11.80;99.90
22337;DHT22;14992;50.844;4.418;2023-02-01T14:02:51;12.00;99.90
22337;DHT22;14992;50.844;4.418;2023-02-01T14:06:16;12.10;99.90
22337;DHT22;14992;50.844;4.418;2023-02-01T14:09:30;12.00;99.90
22337;DHT22;14992;50.844;4.418;2023-02-01T14:12:48;11.90;99.90
22337;DHT22;14992;50.844;4.418;2023-02-01T14:15:27;11.70;99.90
22337;DHT22;14992;50.844;4.418;2023-02-01T14:18:54;11.60;99.90
22337;DHT22;14992;50.844;4.418;2023-02-01T14:21:33;11.50;99.90
22337;DHT22;14992;50.844;4.418;2023-02-01T14:24:30;11.50;99.90
22337;DHT22;14992;50.844;4.418;2023-02-01T14:27:20;11.50;99.90
22337;DHT22;14992;50.844;4.418;2023-02-01T14:30:17;11.30;99.90
22337;DHT22;14992;50.844;4.418;2023-02-01T14:33:14;11.40;99.90
22337;DHT22;14992;50.844;4.418;2023-02-01T14:36:16;11.40;99.90
22337;DHT22;14992;50.844;4.418;2023-02-01T14:38:53;11.40;99.90
22337;DHT22;14992;50.844;4.418;2023-02-01T14:41:54;11.50;99.90
22337;DHT22;14992;50.844;4.418;2023-02-01T14:44:36;11.60;99.90
22337;DHT22;14992;50.844;4.418;2023-02-01T14:47:40;11.40;99.90
22337;DHT22;14992;50.844;4.418;2023-02-01T14:50:37;11.20;99.90
22337;DHT22;14992;50.844;4.418;2023-02-01T14:53:22;11.10;99.90
22337;DHT22;14992;50.844;4.418;2023-02-01T14:56:26;11.10;99.90
22337;DHT22;14992;50.844;4.418;2023-02-01T14:59:08;11.20;99.90
22337;DHT22;14992;50.844;4.418;2023-02-01T15:02:19;11.10;99.90
22337;DHT22;14992;50.844;4.418;2023-02-01T15:04:57;11.10;99.90
22337;DHT22;14992;50.844;4.418;2023-02-01T15:07:53;11.20;99.90
22337;DHT22;14992;50.844;4.418;2023-02-01T15:10:39;11.20;99.90
22337;DHT22;14992;50.844;4.418;2023-02-01T15:13:37;11.20;99.90
22337;DHT22;14992;50.844;4.418;2023-02-01T15:16:17;11.10;99.90
22337;DHT22;14992;50.844;4.418;2023-02-01T15:19:13;11.10;99.90
22337;DHT22;14992;50.844;4.418;2023-02-01T15:21:50;11.00;99.90
22337;DHT22;14992;50.844;4.418;2023-02-01T15:24:52;11.00;99.90
22337;DHT22;14992;50.844;4.418;2023-02-01T15:27:38;11.10;99.90
22337;DHT22;14992;50.844;4.418;2023-02-01T15:30:31;11.00;99.90
22337;DHT22;14992;50.844;4.418;2023-02-01T15:33:16;10.90;99.90
22337;DHT22;14992;50.844;4.418;2023-02-01T15:36:10;10.80;99.90
22337;DHT22;14992;50.844;4.418;2023-02-01T15:39:18;10.80;99.90
22337;DHT22;14992;50.844;4.418;2023-02-01T15:42:11;10.80;99.90
22337;DHT22;14992;50.844;4.418;2023-02-01T15:44:58;10.90;99.90
22337;DHT22;14992;50.844;4.418;2023-02-01T15:47:48;10.80;99.90
22337;DHT22;14992;50.844;4.418;2023-02-01T15:50:33;10.70;99.90
22337;DHT22;14992;50.844;4.418;2023-02-01T15:53:28;10.70;99.90
22337;DHT22;14992;50.844;4.418;2023-02-01T15:56:08;10.70;99.90
22337;DHT22;14992;50.844;4.418;2023-02-01T15:59:12;10.80;99.90
22337;DHT22;14992;50.844;4.418;2023-02-01T16:01:50;10.90;99.90
22337;DHT22;14992;50.844;4.418;2023-02-01T16:04:49;10.80;99.90
22337;DHT22;14992;50.844;4.418;2023-02-01T16:07:27;10.70;99.90
22337;DHT22;14992;50.844;4.418;2023-02-01T16:10:26;10.70;99.90
22337;DHT22;14992;50.844;4.418;2023-02-01T16:13:03;10.70;99.90
22337;DHT22;14992;50.844;4.418;2023-02-01T16:15:59;10.80;99.90
22337;DHT22;14992;50.844;4.418;2023-02-01T16:18:36;10.70;99.90
22337;DHT22;14992;50.844;4.418;2023-02-01T16:21:32;10.70;99.90
22337;DHT22;14992;50.844;4.418;2023-02-01T16:24:08;10.70;99.90
22337;DHT22;14992;50.844;4.418;2023-02-01T16:27:03;10.70;99.90
22337;DHT22;14992;50.844;4.418;2023-02-01T16:29:47;10.50;99.90
22337;DHT22;14992;50.844;4.418;2023-02-01T16:32:38;10.40;99.90
22337;DHT22;14992;50.844;4.418;2023-02-01T16:35:27;10.40;99.90
22337;DHT22;14992;50.844;4.418;2023-02-01T16:38:18;10.40;99.90
22337;DHT22;14992;50.844;4.418;2023-02-01T16:41:05;10.50;99.90
22337;DHT22;14992;50.844;4.418;2023-02-01T16:43:54;10.60;99.90
22337;DHT22;14992;50.844;4.418;2023-02-01T16:46:41;10.60;99.90
22337;DHT22;14992;50.844;4.418;2023-02-01T16:49:30;10.60;99.90
22337;DHT22;14992;50.844;4.418;2023-02-01T16:52:17;10.70;99.90
22337;DHT22;14992;50.844;4.418;2023-02-01T16:55:14;10.60;99.90
22337;DHT22;14992;50.844;4.418;2023-02-01T16:57:50;10.60;99.90
22337;DHT22;14992;50.844;4.418;2023-02-01T17:00:46;10.50;99.90
22337;DHT22;14992;50.844;4.418;2023-02-01T17:03:22;10.50;99.90
22337;DHT22;14992;50.844;4.418;2023-02-01T17:06:21;10.40;99.90
22337;DHT22;14992;50.844;4.418;2023-02-01T17:09:00;10.30;99.90
22337;DHT22;14992;50.844;4.418;2023-02-01T17:11:56;10.30;99.90
22337;DHT22;14992;50.844;4.418;2023-02-01T17:14:35;10.40;99.90
22337;DHT22;14992;50.844;4.418;2023-02-01T17:17:36;10.40;99.90
22337;DHT22;14992;50.844;4.418;2023-02-01T17:20:36;10.50;99.90
22337;DHT22;14992;50.844;4.418;2023-02-01T17:23:12;10.60;99.90
22337;DHT22;14992;50.844;4.418;2023-02-01T17:26:10;10.50;99.90
22337;DHT22;14992;50.844;4.418;2023-02-01T17:28:47;10.40;99.90
22337;DHT22;14992;50.844;4.418;2023-02-01T17:31:45;10.30;99.90
22337;DHT22;14992;50.844;4.418;2023-02-01T17:34:23;10.20;99.90
22337;DHT22;14992;50.844;4.418;2023-02-01T17:37:24;10.10;99.90
22337;DHT22;14992;50.844;4.418;2023-02-01T17:40:02;10.20;99.90
22337;DHT22;14992;50.844;4.418;2023-02-01T17:43:00;10.30;99.90
22337;DHT22;14992;50.844;4.418;2023-02-01T17:45:53;10.30;99.90
22337;DHT22;14992;50.844;4.418;2023-02-01T17:48:52;10.20;99.90
22337;DHT22;14992;50.844;4.418;2023-02-01T17:51:35;10.20;99.90
22337;DHT22;14992;50.844;4.418;2023-02-01T17:54:24;10.20;99.90
22337;DHT22;14992;50.844;4.418;2023-02-01T17:57:10;10.30;99.90
22337;DHT22;14992;50.844;4.418;2023-02-01T18:00:01;10.30;99.90
22337;DHT22;14992;50.844;4.418;2023-02-01T18:02:44;10.30;99.90
22337;DHT22;14992;50.844;4.418;2023-02-01T18:05:39;10.20;99.90
22337;DHT22;14992;50.844;4.418;2023-02-01T18:08:24;10.10;99.90
22337;DHT22;14992;50.844;4.418;2023-02-01T18:11:22;10.10;99.90
22337;DHT22;14992;50.844;4.418;2023-02-01T18:13:58;10.00;99.90
22337;DHT22;14992;50.844;4.418;2023-02-01T18:16:54;10.20;99.90
22337;DHT22;14992;50.844;4.418;2023-02-01T18:19:30;10.20;99.90
22337;DHT22;14992;50.844;4.418;2023-02-01T18:22:28;10.30;99.90
22337;DHT22;14992;50.844;4.418;2023-02-01T18:25:14;10.10;99.90
22337;DHT22;14992;50.844;4.418;2023-02-01T18:28:10;10.20;99.90